Time;durP1;ratioP1;P1;durP2;ratioP2;P2;SDS_P1;SDS_P2;PMS_P1;PMS_P2;Temp;Humidity;BMP_temperature;BMP_pressure;BME280_temperature;BME280_humidity;BME280_pressure;Samples;Min_cycle;Max_cycle;Signal;HPM_P1;HPM_P2
2023/06/09 00:02:22;;;;;;;9.02;1.75;;;15.30;99.90;;;;;;4975066;28;20471;-74
2023/06/09 00:04:48;;;;;;;4.93;0.50;;;15.30;99.90;;;;;;4975417;28;20031;-74
2023/06/09 00:07:15;;;;;;;7.78;1.35;;;15.30;99.90;;;;;;4974991;28;20367;-74
2023/06/09 00:09:42;;;;;;;5.43;0.95;;;15.20;99.90;;;;;;4957565;28;20027;-74
2023/06/09 00:12:08;;;;;;;9.82;1.38;;;15.20;99.90;;;;;;4974871;28;20102;-74
2023/06/09 00:14:33;;;;;;;6.63;0.88;;;15.20;99.90;;;;;;4974737;28;20553;-74
2023/06/09 00:16:59;;;;;;;5.00;1.33;;;15.10;99.90;;;;;;4974808;28;20029;-74
2023/06/09 00:19:27;;;;;;;7.18;1.27;;;15.20;99.90;;;;;;4974842;28;20027;-74
2023/06/09 00:21:53;;;;;;;8.02;1.00;;;15.10;99.90;;;;;;4974799;28;20050;-74
2023/06/09 00:24:21;;;;;;;3.85;1.08;;;15.10;99.90;;;;;;4957468;28;20394;-74
2023/06/09 00:26:47;;;;;;;7.33;1.43;;;15.00;99.90;;;;;;4957362;28;20018;-74
2023/06/09 00:29:15;;;;;;;7.53;0.22;;;15.10;99.90;;;;;;4974576;28;20081;-74
2023/06/09 00:31:41;;;;;;;7.60;1.55;;;15.10;99.90;;;;;;4957245;28;20041;-74
2023/06/09 00:34:07;;;;;;;4.97;0.98;;;15.10;99.90;;;;;;4957256;28;20151;-74
2023/06/09 00:36:33;;;;;;;5.32;0.68;;;15.00;99.90;;;;;;4974632;28;20048;-74
2023/06/09 00:38:59;;;;;;;5.88;0.63;;;15.00;99.90;;;;;;4974400;28;20026;-74
2023/06/09 00:41:25;;;;;;;4.72;0.40;;;15.00;99.90;;;;;;4974477;28;20038;-74
2023/06/09 00:43:51;;;;;;;6.03;0.93;;;15.00;99.90;;;;;;4974469;28;20077;-74
2023/06/09 00:46:17;;;;;;;5.75;0.40;;;14.90;99.90;;;;;;4974436;28;20113;-74
2023/06/09 00:48:43;;;;;;;6.25;0.50;;;14.90;99.90;;;;;;4974352;28;20479;-74
2023/06/09 00:51:09;;;;;;;6.32;1.10;;;14.90;99.90;;;;;;4975006;28;20035;-74
2023/06/09 00:53:37;;;;;;;6.15;0.68;;;14.90;99.90;;;;;;4974309;28;20027;-74
2023/06/09 00:56:03;;;;;;;11.55;0.82;;;14.90;99.90;;;;;;4974242;28;20025;-74
2023/06/09 00:58:29;;;;;;;9.32;1.02;;;14.80;99.90;;;;;;4974509;28;20027;-74
2023/06/09 01:00:57;;;;;;;5.07;0.30;;;14.80;99.90;;;;;;4975235;28;20019;-74
2023/06/09 01:03:24;;;;;;;11.80;0.95;;;14.80;99.90;;;;;;4961145;28;20041;-74
2023/06/09 01:05:55;;;;;;;11.90;1.58;;;14.80;99.90;;;;;;4961471;28;20509;-74
2023/06/09 01:08:36;;;;;;;6.22;0.15;;;14.70;99.90;;;;;;4978207;28;20019;-74
2023/06/09 01:11:21;;;;;;;4.30;0.50;;;14.70;99.90;;;;;;4978310;28;20450;-74
2023/06/09 01:13:53;;;;;;;6.03;0.47;;;14.50;99.90;;;;;;4960751;28;20379;-74
2023/06/09 01:16:24;;;;;;;10.65;0.70;;;14.50;99.90;;;;;;4978098;28;20034;-74
2023/06/09 01:18:52;;;;;;;6.80;0.50;;;14.50;99.90;;;;;;4978079;28;20019;-74
2023/06/09 01:21:41;;;;;;;10.40;1.30;;;14.40;99.90;;;;;;4977951;28;20047;-74
2023/06/09 01:24:58;;;;;;;4.20;0.70;;;14.40;99.90;;;;;;4978537;28;20031;-74
2023/06/09 01:27:25;;;;;;;7.78;1.02;;;14.40;99.90;;;;;;4935248;28;20043;-74
2023/06/09 01:29:53;;;;;;;3.45;0.40;;;14.30;99.90;;;;;;4977805;28;20062;-74
2023/06/09 01:32:20;;;;;;;5.03;1.10;;;14.30;99.90;;;;;;4977794;28;20027;-74
2023/06/09 01:34:47;;;;;;;10.98;1.17;;;14.30;99.90;;;;;;4977666;28;20328;-74
2023/06/09 01:37:13;;;;;;;2.45;0.20;;;14.20;99.90;;;;;;4977687;28;20018;-74
2023/06/09 01:39:39;;;;;;;8.23;0.82;;;14.10;99.90;;;;;;4977638;28;20019;-74
2023/06/09 01:42:06;;;;;;;5.22;0.50;;;14.10;99.90;;;;;;4960318;28;20019;-74
2023/06/09 01:44:34;;;;;;;5.10;1.45;;;14.10;99.90;;;;;;4977722;28;20142;-74
2023/06/09 01:46:59;;;;;;;7.10;0.50;;;14.10;99.90;;;;;;4977589;28;20549;-74
2023/06/09 01:49:33;;;;;;;6.20;0.75;;;14.10;99.90;;;;;;4977472;28;20106;-74
2023/06/09 01:52:20;;;;;;;10.70;1.13;;;14.00;99.90;;;;;;4960179;28;20053;-74
2023/06/09 01:55:01;;;;;;;5.90;0.80;;;14.00;99.90;;;;;;4977398;28;20367;-74
2023/06/09 01:57:48;;;;;;;5.50;0.98;;;14.00;99.90;;;;;;4977389;28;20086;-74
2023/06/09 02:00:14;;;;;;;5.88;0.75;;;14.00;99.90;;;;;;4977361;28;20504;-74
2023/06/09 02:02:41;;;;;;;4.57;0.65;;;14.00;99.90;;;;;;4977286;28;20390;-74
2023/06/09 02:05:08;;;;;;;5.95;0.73;;;14.00;99.90;;;;;;4977827;28;20045;-74
2023/06/09 02:07:34;;;;;;;8.52;1.40;;;14.00;99.90;;;;;;4977127;28;20027;-74
2023/06/09 02:10:01;;;;;;;6.53;0.75;;;14.00;99.90;;;;;;4977131;28;20486;-74
2023/06/09 02:12:33;;;;;;;6.55;1.15;;;14.00;99.90;;;;;;4959501;28;20027;-74
2023/06/09 02:14:59;;;;;;;6.00;0.65;;;13.90;99.90;;;;;;4976340;28;20030;-74
2023/06/09 02:17:26;;;;;;;8.50;1.17;;;13.90;99.90;;;;;;4977749;28;20063;-74
2023/06/09 02:19:51;;;;;;;8.85;0.80;;;13.90;99.90;;;;;;4976910;28;20027;-74
2023/06/09 02:22:17;;;;;;;6.05;1.02;;;13.90;99.90;;;;;;4976912;28;20105;-74
2023/06/09 02:24:43;;;;;;;11.95;0.82;;;13.90;99.90;;;;;;4959554;28;20031;-74
2023/06/09 02:27:08;;;;;;;15.15;2.30;;;13.90;99.90;;;;;;4976795;28;20080;-74
2023/06/09 02:29:35;;;;;;;6.13;1.40;;;13.90;99.90;;;;;;4959365;28;20023;-74
2023/06/09 02:32:01;;;;;;;7.07;0.80;;;13.80;99.90;;;;;;4976752;28;20027;-74
2023/06/09 02:34:27;;;;;;;6.78;1.17;;;13.90;99.90;;;;;;4976656;28;20157;-74
2023/06/09 02:36:57;;;;;;;2.13;0.10;;;13.90;99.90;;;;;;4976669;28;20033;-74
2023/06/09 02:39:24;;;;;;;5.90;0.75;;;13.90;99.90;;;;;;4977108;28;20098;-74
2023/06/09 02:41:49;;;;;;;4.55;0.60;;;13.90;99.90;;;;;;4976560;28;20026;-74
2023/06/09 02:44:16;;;;;;;7.57;0.88;;;13.80;99.90;;;;;;4976647;28;20498;-74
2023/06/09 02:46:43;;;;;;;5.90;0.80;;;13.90;99.90;;;;;;4976500;28;20066;-74
2023/06/09 02:49:09;;;;;;;7.07;0.82;;;13.90;99.90;;;;;;4976386;28;20034;-74
2023/06/09 02:51:36;;;;;;;5.95;0.35;;;13.80;99.90;;;;;;4976393;28;20031;-74
2023/06/09 02:54:04;;;;;;;6.00;0.50;;;13.80;99.90;;;;;;4976258;28;20113;-74
2023/06/09 02:56:30;;;;;;;4.72;0.80;;;13.80;99.90;;;;;;4976401;28;20102;-74
2023/06/09 02:58:57;;;;;;;6.40;0.82;;;13.80;99.90;;;;;;4958833;28;20469;-74
2023/06/09 03:01:22;;;;;;;8.23;0.85;;;13.80;99.90;;;;;;4976227;28;20050;-74
2023/06/09 03:03:48;;;;;;;4.95;0.40;;;13.80;99.90;;;;;;4976203;28;20065;-74
2023/06/09 03:06:15;;;;;;;7.28;1.10;;;14.20;99.90;;;;;;4976690;28;20052;-74
2023/06/09 03:08:41;;;;;;;3.22;0.38;;;13.70;99.90;;;;;;4976051;28;20066;-74
2023/06/09 03:11:07;;;;;;;5.53;0.68;;;;;;;;;;4976004;28;20061;-74
2023/06/09 03:13:32;;;;;;;4.72;0.68;;;15.00;99.90;;;;;;4958635;28;20086;-74
2023/06/09 03:15:58;;;;;;;6.38;0.88;;;13.70;99.90;;;;;;4976048;28;20023;-75
2023/06/09 03:18:25;;;;;;;9.35;1.00;;;13.60;99.90;;;;;;4975772;28;20110;-74
2023/06/09 03:20:50;;;;;;;6.38;1.20;;;13.70;99.90;;;;;;4975827;28;20023;-74
2023/06/09 03:23:17;;;;;;;7.95;0.45;;;13.60;99.90;;;;;;4976380;28;20049;-74
2023/06/09 03:25:43;;;;;;;7.10;1.02;;;13.60;99.90;;;;;;4958199;28;20089;-74
2023/06/09 03:28:09;;;;;;;6.55;0.70;;;;;;;;;;4976027;28;20027;-74
2023/06/09 03:30:35;;;;;;;5.68;0.68;;;13.60;99.90;;;;;;4975583;28;20027;-74
2023/06/09 03:33:00;;;;;;;5.43;0.43;;;13.60;99.90;;;;;;4975684;28;20034;-74
2023/06/09 03:35:26;;;;;;;7.05;1.27;;;13.60;99.90;;;;;;4958449;28;20027;-74
2023/06/09 03:37:51;;;;;;;6.15;0.82;;;13.50;99.90;;;;;;4975605;28;20054;-74
2023/06/09 03:40:18;;;;;;;6.90;1.30;;;13.70;99.90;;;;;;4975561;28;20026;-74
2023/06/09 03:42:43;;;;;;;6.18;1.48;;;13.50;99.90;;;;;;4975496;28;20022;-74
2023/06/09 03:45:09;;;;;;;7.35;1.20;;;13.50;99.90;;;;;;4975882;28;20030;-74
2023/06/09 03:47:35;;;;;;;5.38;0.77;;;13.50;99.90;;;;;;4975739;28;20027;-74
2023/06/09 03:50:00;;;;;;;5.25;0.90;;;13.50;99.90;;;;;;4975273;28;20027;-74
2023/06/09 03:52:27;;;;;;;8.73;0.70;;;13.50;99.90;;;;;;4975317;28;20398;-74
2023/06/09 03:54:52;;;;;;;8.10;1.75;;;13.50;99.90;;;;;;4975423;28;20026;-74
2023/06/09 03:57:18;;;;;;;3.97;0.90;;;13.50;99.90;;;;;;4957775;28;20123;-74
2023/06/09 03:59:44;;;;;;;6.05;1.10;;;13.50;99.90;;;;;;4975072;28;20474;-74
2023/06/09 04:02:09;;;;;;;5.32;1.00;;;13.60;99.90;;;;;;4975104;28;20031;-74
2023/06/09 04:04:35;;;;;;;5.57;1.23;;;13.50;99.90;;;;;;4975075;28;20019;-74
2023/06/09 04:07:01;;;;;;;6.43;1.05;;;13.50;99.90;;;;;;4957685;28;20534;-74
2023/06/09 04:09:27;;;;;;;8.93;0.75;;;13.60;99.90;;;;;;4974897;28;20035;-74
2023/06/09 04:11:52;;;;;;;7.72;1.45;;;13.60;99.90;;;;;;4974910;28;20033;-74
2023/06/09 04:14:18;;;;;;;3.95;1.00;;;13.60;99.90;;;;;;4957489;28;20027;-74
2023/06/09 04:16:45;;;;;;;8.73;1.63;;;13.60;99.90;;;;;;4974884;28;20022;-74
2023/06/09 04:19:11;;;;;;;6.70;0.77;;;13.70;99.90;;;;;;4975346;28;20031;-74
2023/06/09 04:21:37;;;;;;;5.95;1.38;;;13.60;99.90;;;;;;4974749;28;20023;-74
2023/06/09 04:24:03;;;;;;;11.40;1.25;;;13.70;99.90;;;;;;4957472;28;20068;-74
2023/06/09 04:26:32;;;;;;;13.48;2.40;;;13.70;99.90;;;;;;4975328;28;20491;-74
2023/06/09 04:28:58;;;;;;;7.53;0.93;;;13.70;99.90;;;;;;4974636;28;20050;-74
2023/06/09 04:31:23;;;;;;;9.85;1.35;;;13.80;99.90;;;;;;4974682;28;20070;-74
2023/06/09 04:33:53;;;;;;;6.90;1.63;;;13.90;99.90;;;;;;4957765;28;20034;-74
2023/06/09 04:36:20;;;;;;;7.40;1.52;;;13.90;99.90;;;;;;4974066;28;20438;-74
2023/06/09 04:38:46;;;;;;;6.22;1.02;;;14.00;99.90;;;;;;4974466;28;20011;-74
2023/06/09 04:41:12;;;;;;;9.98;2.35;;;14.00;99.90;;;;;;4974501;28;20030;-74
2023/06/09 04:43:39;;;;;;;8.68;2.10;;;14.10;99.90;;;;;;4957185;28;20026;-74
2023/06/09 04:46:06;;;;;;;7.90;1.10;;;14.10;99.90;;;;;;4975002;28;20087;-74
2023/06/09 04:48:34;;;;;;;4.70;0.98;;;14.10;99.90;;;;;;4974452;28;20033;-74
2023/06/09 04:51:01;;;;;;;9.20;1.93;;;14.10;99.90;;;;;;4975132;28;20482;-74
2023/06/09 04:53:28;;;;;;;4.72;1.80;;;14.20;99.90;;;;;;4974921;28;20440;-74
2023/06/09 04:55:54;;;;;;;9.35;2.00;;;14.20;99.90;;;;;;4974385;28;20027;-74
2023/06/09 04:58:20;;;;;;;7.93;1.08;;;14.20;99.90;;;;;;4974262;28;20035;-74
2023/06/09 05:00:46;;;;;;;6.80;1.20;;;14.20;99.90;;;;;;4974359;28;20019;-74
2023/06/09 05:03:17;;;;;;;5.30;1.10;;;14.20;99.90;;;;;;4974268;28;20019;-74
2023/06/09 05:05:43;;;;;;;17.88;2.30;;;14.40;99.90;;;;;;4956987;28;20499;-74
2023/06/09 05:08:09;;;;;;;9.10;1.30;;;14.40;99.90;;;;;;4974271;28;20019;-74
2023/06/09 05:10:35;;;;;;;11.82;1.13;;;14.50;99.90;;;;;;4974210;28;20019;-74
2023/06/09 05:13:00;;;;;;;8.80;1.73;;;14.60;99.90;;;;;;4974212;28;20030;-74
2023/06/09 05:15:27;;;;;;;9.43;2.22;;;14.60;99.90;;;;;;4974322;28;20494;-74
2023/06/09 05:17:53;;;;;;;6.57;2.22;;;14.70;99.90;;;;;;4974180;28;20054;-74
2023/06/09 05:20:19;;;;;;;4.90;1.70;;;14.80;99.90;;;;;;4956871;28;20110;-74
2023/06/09 05:22:45;;;;;;;10.93;2.15;;;14.80;99.90;;;;;;4974181;28;20065;-74
2023/06/09 05:25:13;;;;;;;8.95;1.67;;;15.00;99.90;;;;;;4974173;28;20029;-75
2023/06/09 05:27:38;;;;;;;9.90;2.25;;;14.90;99.90;;;;;;4974790;28;20111;-74
2023/06/09 05:30:05;;;;;;;9.05;2.40;;;15.10;99.90;;;;;;4974733;28;20437;-74
2023/06/09 05:32:31;;;;;;;5.70;1.13;;;15.20;99.90;;;;;;4974013;28;20490;-74
2023/06/09 05:34:57;;;;;;;5.43;1.77;;;15.20;99.90;;;;;;4974013;28;20115;-74
2023/06/09 05:37:22;;;;;;;6.93;1.20;;;15.30;99.90;;;;;;4957002;28;20042;-74
2023/06/09 05:39:48;;;;;;;11.98;1.77;;;15.30;99.90;;;;;;4974003;28;20030;-74
2023/06/09 05:42:14;;;;;;;5.40;1.50;;;15.40;99.90;;;;;;4973977;28;20030;-75
2023/06/09 05:44:39;;;;;;;7.88;1.45;;;15.60;99.90;;;;;;4974006;28;20026;-75
2023/06/09 05:47:05;;;;;;;8.50;1.85;;;15.60;99.90;;;;;;4973929;28;20514;-75
2023/06/09 05:49:31;;;;;;;9.95;1.58;;;15.90;99.90;;;;;;4977962;28;20403;-75
2023/06/09 05:51:57;;;;;;;4.25;1.08;;;16.00;99.90;;;;;;4977542;28;20019;-75
2023/06/09 05:54:24;;;;;;;8.55;1.38;;;16.40;99.90;;;;;;4977425;28;20566;-76
2023/06/09 05:56:53;;;;;;;10.38;1.85;;;16.60;99.90;;;;;;4977475;28;20372;-75
2023/06/09 05:59:20;;;;;;;7.05;1.17;;;16.70;99.90;;;;;;4960067;28;20042;-75
2023/06/09 06:01:47;;;;;;;6.18;1.33;;;16.90;99.90;;;;;;4977649;28;20022;-75
2023/06/09 06:04:12;;;;;;;9.70;1.58;;;17.20;99.90;;;;;;4959934;28;20033;-74
2023/06/09 06:06:38;;;;;;;6.60;1.63;;;17.30;99.90;;;;;;4977647;28;20526;-74
2023/06/09 06:09:04;;;;;;;10.75;2.15;;;17.20;99.90;;;;;;4959939;28;20147;-74
2023/06/09 06:11:30;;;;;;;7.28;1.40;;;17.10;99.90;;;;;;4977159;28;20023;-74
2023/06/09 06:13:56;;;;;;;8.48;2.30;;;17.20;99.90;;;;;;4977426;28;20048;-74
2023/06/09 06:16:22;;;;;;;9.75;1.38;;;17.10;99.90;;;;;;4977249;28;20031;-74
2023/06/09 06:18:47;;;;;;;18.77;2.15;;;17.20;99.90;;;;;;4976961;28;20022;-74
2023/06/09 06:21:13;;;;;;;10.35;1.95;;;17.30;99.90;;;;;;4977083;28;20437;-74
2023/06/09 06:23:39;;;;;;;9.20;1.92;;;17.50;99.90;;;;;;4977428;28;20027;-75
2023/06/09 06:26:05;;;;;;;4.93;1.67;;;17.60;99.90;;;;;;4976981;28;20478;-74
2023/06/09 06:28:31;;;;;;;14.13;3.15;;;17.60;99.90;;;;;;4959325;28;20027;-74
2023/06/09 06:30:57;;;;;;;8.23;2.20;;;17.70;99.90;;;;;;4975551;28;20367;-74
2023/06/09 06:33:27;;;;;;;5.20;1.90;;;17.80;99.90;;;;;;4975494;28;20085;-74
2023/06/09 06:35:52;;;;;;;9.43;1.98;;;17.90;99.90;;;;;;4959018;28;20386;-74
2023/06/09 06:38:18;;;;;;;6.65;2.03;;;;;;;;;;4976444;28;20027;-74
2023/06/09 06:40:44;;;;;;;7.93;1.27;;;18.00;99.90;;;;;;4975954;28;20101;-74
2023/06/09 06:43:09;;;;;;;5.15;1.85;;;18.20;99.90;;;;;;4976792;28;20019;-74
2023/06/09 06:45:35;;;;;;;7.65;2.10;;;18.30;99.90;;;;;;4976717;28;20085;-74
2023/06/09 06:48:01;;;;;;;9.02;1.52;;;18.40;99.90;;;;;;4976770;28;20033;-74
2023/06/09 06:50:27;;;;;;;8.57;1.63;;;18.50;99.90;;;;;;4976470;28;20490;-74
2023/06/09 06:52:53;;;;;;;8.05;1.92;;;18.60;99.90;;;;;;4976921;28;20018;-74
2023/06/09 06:55:18;;;;;;;6.53;1.65;;;18.70;99.90;;;;;;4976225;28;20031;-74
2023/06/09 06:57:44;;;;;;;5.85;1.45;;;18.80;99.90;;;;;;4976216;28;20030;-74
2023/06/09 07:00:16;;;;;;;16.98;2.20;;;18.90;99.90;;;;;;4975697;28;20029;-74
2023/06/09 07:02:47;;;;;;;5.57;1.88;;;19.00;99.90;;;;;;4976285;28;20034;-74
2023/06/09 07:05:13;;;;;;;9.45;1.58;;;19.10;99.90;;;;;;4976872;28;20035;-74
2023/06/09 07:07:39;;;;;;;5.63;1.42;;;19.30;99.90;;;;;;4976314;28;20034;-74
2023/06/09 07:10:07;;;;;;;9.82;2.60;;;19.40;99.90;;;;;;4976660;28;20023;-74
2023/06/09 07:12:33;;;;;;;9.30;2.40;;;19.70;99.90;;;;;;4958884;28;20046;-74
2023/06/09 07:14:59;;;;;;;8.50;1.55;;;19.60;99.90;;;;;;4976171;28;20059;-74
2023/06/09 07:17:24;;;;;;;8.82;2.35;;;19.80;99.90;;;;;;4976043;28;20018;-74
2023/06/09 07:19:50;;;;;;;8.05;1.92;;;20.00;99.90;;;;;;4975891;28;20411;-74
2023/06/09 07:22:15;;;;;;;6.93;2.22;;;20.10;99.90;;;;;;4976048;28;20382;-74
2023/06/09 07:24:41;;;;;;;7.30;2.30;;;20.30;99.90;;;;;;4976025;28;20027;-74
2023/06/09 07:27:07;;;;;;;7.80;1.60;;;20.40;99.90;;;;;;4975854;28;20082;-75
2023/06/09 07:29:35;;;;;;;4.15;1.63;;;20.60;99.90;;;;;;4975771;28;20027;-74
2023/06/09 07:32:04;;;;;;;7.63;2.08;;;20.70;99.90;;;;;;4958793;28;20026;-74
2023/06/09 07:34:31;;;;;;;10.00;2.92;;;20.80;99.90;;;;;;4975492;28;20129;-74
2023/06/09 07:36:59;;;;;;;9.70;2.33;;;21.00;99.90;;;;;;4975525;28;20089;-74
2023/06/09 07:39:25;;;;;;;4.78;1.48;;;21.10;99.90;;;;;;4975445;28;20048;-74
2023/06/09 07:41:51;;;;;;;7.13;2.28;;;21.20;99.90;;;;;;4975626;28;20430;-74
2023/06/09 07:44:16;;;;;;;8.23;1.70;;;21.40;99.90;;;;;;4975505;28;20018;-74
2023/06/09 07:46:42;;;;;;;8.15;1.88;;;21.40;99.90;;;;;;4975519;28;20040;-74
2023/06/09 07:49:08;;;;;;;6.07;1.52;;;21.60;99.90;;;;;;4975783;28;20029;-74
2023/06/09 07:51:37;;;;;;;6.22;2.25;;;21.70;99.90;;;;;;4958105;28;20506;-74
2023/06/09 07:54:04;;;;;;;10.35;2.60;;;21.80;99.90;;;;;;4958128;28;20037;-75
2023/06/09 07:56:29;;;;;;;6.75;1.30;;;22.00;99.90;;;;;;4975238;28;20090;-74
2023/06/09 07:58:55;;;;;;;8.93;1.98;;;22.10;99.90;;;;;;4975159;28;20023;-74
2023/06/09 08:01:20;;;;;;;11.77;1.70;;;22.20;99.90;;;;;;4957954;28;20014;-74
2023/06/09 08:03:46;;;;;;;3.88;1.20;;;22.30;99.90;;;;;;4975193;28;20061;-74
2023/06/09 08:06:12;;;;;;;6.05;2.13;;;22.40;99.90;;;;;;4957856;28;20037;-74
2023/06/09 08:08:37;;;;;;;5.75;1.77;;;22.60;99.90;;;;;;4975253;28;20022;-74
2023/06/09 08:11:03;;;;;;;12.73;2.35;;;22.60;99.90;;;;;;4975009;28;20019;-74
2023/06/09 08:13:28;;;;;;;2.50;1.65;;;22.70;99.90;;;;;;4958008;28;20023;-74
2023/06/09 08:15:54;;;;;;;7.00;1.98;;;22.80;99.90;;;;;;4958108;28;20106;-75
2023/06/09 08:18:20;;;;;;;7.43;2.15;;;23.00;99.90;;;;;;4974894;28;20019;-74
2023/06/09 08:20:45;;;;;;;5.20;2.00;;;23.00;99.90;;;;;;4957666;28;20023;-74
2023/06/09 08:23:11;;;;;;;8.43;2.03;;;23.20;99.90;;;;;;4975090;28;20402;-75
2023/06/09 08:25:37;;;;;;;4.20;1.70;;;23.50;99.90;;;;;;4974902;28;20027;-74
2023/06/09 08:28:03;;;;;;;7.85;1.67;;;23.50;99.90;;;;;;4974862;28;20023;-74
2023/06/09 08:30:28;;;;;;;4.40;1.73;;;23.60;99.80;;;;;;4975002;28;20022;-74
2023/06/09 08:32:54;;;;;;;7.93;1.88;;;23.70;98.70;;;;;;4974778;28;20394;-75
2023/06/09 08:35:21;;;;;;;5.10;1.40;;;23.90;98.60;;;;;;4974735;28;20395;-75
2023/06/09 08:37:47;;;;;;;4.55;1.88;;;24.00;98.20;;;;;;4975162;28;20109;-75
2023/06/09 08:40:13;;;;;;;6.68;2.53;;;24.00;98.40;;;;;;4975001;28;20471;-74
2023/06/09 08:42:39;;;;;;;4.05;1.70;;;24.10;97.30;;;;;;4974571;28;20022;-75
2023/06/09 08:45:05;;;;;;;4.55;1.95;;;24.30;98.00;;;;;;4975006;28;20026;-75
2023/06/09 08:47:33;;;;;;;7.00;2.38;;;24.40;97.80;;;;;;4974495;28;20082;-74
2023/06/09 08:49:59;;;;;;;4.28;1.80;;;24.60;96.70;;;;;;4957199;28;20023;-75
2023/06/09 08:52:29;;;;;;;6.90;2.10;;;24.70;96.20;;;;;;4974619;28;20023;-75
2023/06/09 08:54:56;;;;;;;3.88;1.77;;;24.70;96.40;;;;;;4974653;28;20022;-74
2023/06/09 08:57:23;;;;;;;3.60;1.30;;;25.00;95.20;;;;;;4974221;28;20043;-75
2023/06/09 08:59:50;;;;;;;6.05;1.88;;;24.90;95.40;;;;;;4957137;28;20073;-74
2023/06/09 09:02:16;;;;;;;7.55;2.22;;;25.00;94.60;;;;;;4974419;28;20019;-74
2023/06/09 09:04:42;;;;;;;5.63;1.70;;;25.10;94.90;;;;;;4957134;28;20084;-74
2023/06/09 09:07:09;;;;;;;5.50;1.98;;;25.20;94.40;;;;;;4974344;28;20491;-75
2023/06/09 09:09:35;;;;;;;8.02;1.77;;;25.30;94.70;;;;;;4974632;28;20023;-75
2023/06/09 09:12:04;;;;;;;4.35;1.98;;;25.40;94.40;;;;;;4974458;28;20027;-75
2023/06/09 09:14:30;;;;;;;3.83;1.50;;;25.50;93.60;;;;;;4956971;28;20513;-75
2023/06/09 09:16:56;;;;;;;4.35;2.00;;;25.70;93.30;;;;;;4974265;28;20023;-75
2023/06/09 09:19:28;;;;;;;7.80;1.90;;;25.70;93.50;;;;;;4974247;28;20031;-75
2023/06/09 09:21:55;;;;;;;6.82;1.77;;;25.80;92.60;;;;;;4974190;28;20034;-75
2023/06/09 09:24:29;;;;;;;3.72;1.55;;;25.90;92.50;;;;;;4977921;28;20394;-74
2023/06/09 09:26:56;;;;;;;3.72;1.92;;;26.00;92.10;;;;;;4960745;28;20023;-74
2023/06/09 09:29:26;;;;;;;4.70;2.00;;;26.10;91.80;;;;;;4960512;28;20022;-75
2023/06/09 09:31:55;;;;;;;9.07;2.00;;;26.20;91.90;;;;;;4978486;28;20037;-75
2023/06/09 09:34:21;;;;;;;3.30;1.38;;;26.40;92.30;;;;;;4977785;28;20031;-75
2023/06/09 09:36:54;;;;;;;5.30;1.40;;;26.60;91.20;;;;;;4977908;28;20030;-75
2023/06/09 09:39:20;;;;;;;4.68;1.65;;;26.70;91.10;;;;;;4977935;28;20102;-75
2023/06/09 09:42:07;;;;;;;5.00;1.58;;;26.90;90.00;;;;;;4977737;28;20026;-75
2023/06/09 09:44:40;;;;;;;2.35;1.40;;;27.00;90.00;;;;;;4960329;28;20037;-75
2023/06/09 09:47:14;;;;;;;3.92;1.52;;;27.10;89.70;;;;;;4960330;28;20022;-74
2023/06/09 09:49:55;;;;;;;2.90;1.67;;;27.20;87.50;;;;;;4977593;28;20459;-74
2023/06/09 09:52:32;;;;;;;3.85;1.42;;;27.40;88.20;;;;;;4977694;28;20051;-75
2023/06/09 09:55:08;;;;;;;5.20;1.80;;;27.70;86.20;;;;;;4977448;28;20114;-75
2023/06/09 09:57:35;;;;;;;5.43;1.60;;;27.70;86.40;;;;;;4976183;28;20468;-75
2023/06/09 10:00:11;;;;;;;6.10;1.70;;;27.80;84.20;;;;;;4968720;28;20029;-75
2023/06/09 10:02:43;;;;;;;8.27;1.83;;;27.90;83.60;;;;;;4970997;28;20029;-75
2023/06/09 10:05:10;;;;;;;3.47;1.92;;;28.00;82.70;;;;;;4971275;28;21428;-75
2023/06/09 10:07:39;;;;;;;3.90;1.27;;;28.00;81.10;;;;;;4971155;28;20054;-75
2023/06/09 10:10:08;;;;;;;1.92;1.15;;;28.10;81.30;;;;;;4955436;28;20308;-75
2023/06/09 10:12:37;;;;;;;5.35;1.40;;;28.20;80.80;;;;;;4971606;28;20493;-75
2023/06/09 10:15:04;;;;;;;2.80;1.20;;;28.30;81.30;;;;;;4950706;28;20050;-75
2023/06/09 10:17:30;;;;;;;3.90;1.40;;;28.50;80.90;;;;;;4969173;28;20019;-75
2023/06/09 10:19:56;;;;;;;5.13;1.17;;;28.60;79.60;;;;;;4973059;28;20069;-75
2023/06/09 10:22:23;;;;;;;4.63;1.40;;;28.80;79.20;;;;;;4976830;28;20046;-75
2023/06/09 10:24:50;;;;;;;4.68;1.33;;;;;;;;;;4959157;28;20022;-75
2023/06/09 10:27:16;;;;;;;4.20;1.20;;;29.20;75.40;;;;;;4973630;28;20447;-75
2023/06/09 10:29:42;;;;;;;3.35;1.33;;;29.20;76.00;;;;;;4974749;28;20030;-75
2023/06/09 10:32:13;;;;;;;3.67;1.05;;;29.60;73.70;;;;;;4973317;28;20029;-75
2023/06/09 10:34:46;;;;;;;2.65;1.10;;;29.50;73.80;;;;;;4963981;28;20031;-75
2023/06/09 10:37:11;;;;;;;4.82;1.35;;;29.60;73.60;;;;;;4970178;28;20094;-75
2023/06/09 10:39:52;;;;;;;3.83;1.45;;;29.80;74.10;;;;;;4956112;28;20360;-75
2023/06/09 10:42:29;;;;;;;6.18;1.73;;;29.90;73.20;;;;;;4965030;28;20094;-75
2023/06/09 10:45:07;;;;;;;4.55;1.48;;;30.00;71.20;;;;;;4970411;28;20081;-75
2023/06/09 10:47:50;;;;;;;2.17;1.02;;;30.00;71.50;;;;;;4948168;28;20058;-75
2023/06/09 10:50:26;;;;;;;2.42;1.05;;;30.40;69.30;;;;;;4971647;28;20061;-75
2023/06/09 10:53:02;;;;;;;4.53;1.10;;;30.50;70.00;;;;;;4966849;28;20479;-74
2023/06/09 10:55:30;;;;;;;4.75;1.15;;;30.70;71.00;;;;;;4953731;28;20030;-74
2023/06/09 10:57:57;;;;;;;2.78;1.17;;;30.80;69.50;;;;;;4965016;28;20026;-74
2023/06/09 11:00:23;;;;;;;4.75;1.52;;;31.00;67.60;;;;;;4967760;28;20107;-74
2023/06/09 11:03:19;;;;;;;1.85;1.15;;;31.10;66.80;;;;;;4974172;28;20035;-74
2023/06/09 11:05:59;;;;;;;6.18;0.95;;;31.30;65.20;;;;;;4965472;28;20039;-75
2023/06/09 11:08:25;;;;;;;2.33;1.17;;;31.60;64.50;;;;;;4969923;28;20027;-74
2023/06/09 11:10:51;;;;;;;3.42;1.27;;;31.60;65.10;;;;;;4972808;28;20026;-74
2023/06/09 11:13:36;;;;;;;4.45;1.88;;;31.70;66.00;;;;;;4968983;28;20106;-74
2023/06/09 11:16:02;;;;;;;1.40;1.08;;;31.80;63.80;;;;;;4968193;28;20490;-74
2023/06/09 11:18:28;;;;;;;2.15;1.40;;;32.00;61.50;;;;;;4972261;28;20027;-74
2023/06/09 11:21:16;;;;;;;4.43;1.70;;;32.00;62.10;;;;;;4970500;28;20058;-74
2023/06/09 11:24:00;;;;;;;5.40;1.33;;;32.10;61.40;;;;;;4968823;28;20030;-74
2023/06/09 11:26:26;;;;;;;1.77;1.20;;;32.10;62.00;;;;;;4962679;28;20027;-75
2023/06/09 11:28:52;;;;;;;2.20;1.02;;;32.30;61.80;;;;;;4974062;28;20046;-74
2023/06/09 11:31:18;;;;;;;5.80;1.73;;;32.30;61.80;;;;;;4957080;28;20030;-74
2023/06/09 11:33:46;;;;;;;4.82;1.80;;;31.90;62.70;;;;;;4975710;28;20023;-74
2023/06/09 11:36:29;;;;;;;3.42;1.58;;;31.50;61.80;;;;;;4975527;28;20019;-74
2023/06/09 11:39:04;;;;;;;3.17;1.02;;;31.50;62.20;;;;;;4974867;28;20023;-74
2023/06/09 11:41:30;;;;;;;3.80;1.48;;;31.80;62.80;;;;;;4975618;28;20498;-74
2023/06/09 11:43:57;;;;;;;1.42;0.95;;;32.00;64.40;;;;;;4975596;28;20030;-74
2023/06/09 11:46:23;;;;;;;11.55;1.30;;;32.40;60.70;;;;;;4975460;28;20097;-74
2023/06/09 11:48:58;;;;;;;1.45;1.30;;;32.40;57.90;;;;;;4975405;28;20030;-74
2023/06/09 11:51:24;;;;;;;2.10;0.98;;;32.80;58.80;;;;;;4975307;28;20027;-74
2023/06/09 11:53:50;;;;;;;2.63;1.02;;;33.00;55.50;;;;;;4957963;28;20019;-74
2023/06/09 11:56:15;;;;;;;1.98;0.75;;;33.20;54.90;;;;;;4975222;28;20078;-73
2023/06/09 11:58:42;;;;;;;1.65;0.82;;;33.50;55.00;;;;;;4957862;28;20033;-74
2023/06/09 12:01:08;;;;;;;1.80;1.23;;;33.50;53.80;;;;;;4975384;28;20098;-74
2023/06/09 12:03:36;;;;;;;2.92;0.95;;;33.60;54.60;;;;;;4975106;28;20054;-74
2023/06/09 12:06:02;;;;;;;1.88;1.20;;;34.00;53.50;;;;;;4975135;28;20022;-74
2023/06/09 12:08:28;;;;;;;1.98;0.70;;;34.30;51.60;;;;;;4975587;28;20038;-74
2023/06/09 12:10:53;;;;;;;2.97;0.70;;;34.30;52.00;;;;;;4975033;28;20026;-74
2023/06/09 12:13:19;;;;;;;1.67;0.65;;;34.10;49.10;;;;;;4975438;28;20015;-74
2023/06/09 12:15:51;;;;;;;3.70;0.85;;;33.80;50.10;;;;;;4974964;28;20034;-74
2023/06/09 12:18:17;;;;;;;1.98;0.70;;;33.70;49.10;;;;;;4975555;28;20027;-74
2023/06/09 12:20:46;;;;;;;2.35;0.43;;;33.50;50.20;;;;;;4974978;28;20031;-74
2023/06/09 12:23:14;;;;;;;1.58;0.68;;;33.40;50.50;;;;;;4974789;28;20509;-74
2023/06/09 12:25:45;;;;;;;1.05;0.30;;;33.70;51.70;;;;;;4974797;28;20018;-74
2023/06/09 12:28:19;;;;;;;1.58;0.60;;;33.90;50.40;;;;;;4974715;28;20031;-74
2023/06/09 12:30:47;;;;;;;4.03;0.57;;;34.30;48.90;;;;;;4974764;28;20022;-74
2023/06/09 12:33:23;;;;;;;2.17;0.45;;;34.60;49.20;;;;;;4974765;28;20034;-74
2023/06/09 12:35:54;;;;;;;3.58;0.93;;;34.90;48.70;;;;;;4974740;28;20158;-74
2023/06/09 12:38:20;;;;;;;1.77;1.00;;;34.90;46.70;;;;;;4974634;28;20023;-74
2023/06/09 12:40:47;;;;;;;2.97;0.85;;;34.90;47.20;;;;;;4974631;28;20027;-74
2023/06/09 12:43:15;;;;;;;2.13;1.02;;;35.10;47.20;;;;;;4974626;28;20026;-74
2023/06/09 12:45:42;;;;;;;5.93;0.88;;;35.20;47.80;;;;;;4974469;28;20026;-74
2023/06/09 12:48:08;;;;;;;2.30;1.05;;;35.40;47.80;;;;;;4972943;28;20561;-74
2023/06/09 12:50:34;;;;;;;1.83;0.50;;;35.40;46.50;;;;;;4974637;28;20031;-74
2023/06/09 12:53:00;;;;;;;2.30;0.40;;;35.30;46.70;;;;;;4957088;28;20029;-74